Time;durP1;ratioP1;P1;durP2;ratioP2;P2;SDS_P1;SDS_P2;PMS_P1;PMS_P2;Temp;Humidity;BMP_temperature;BMP_pressure;BME280_temperature;BME280_humidity;BME280_pressure;Samples;Min_cycle;Max_cycle;Signal;HPM_P1;HPM_P2
2023/03/17 00:00:23;;;;;;;40.93;16.20;;;5.90;88.90;;;;;;5088251;28;20294;-61
2023/03/17 00:02:51;;;;;;;44.47;16.90;;;5.80;88.90;;;;;;5087028;28;20196;-61
2023/03/17 00:05:22;;;;;;;47.20;18.20;;;5.90;89.00;;;;;;5087557;28;20199;-62
2023/03/17 00:07:50;;;;;;;37.80;15.13;;;5.90;88.90;;;;;;5088084;28;20668;-62
2023/03/17 00:10:21;;;;;;;30.97;13.03;;;5.90;88.80;;;;;;5085371;28;20663;-62
2023/03/17 00:12:50;;;;;;;33.90;13.20;;;5.90;88.70;;;;;;5088760;28;20244;-61
2023/03/17 00:15:17;;;;;;;27.27;13.07;;;5.90;88.70;;;;;;5068581;28;20211;-63
2023/03/17 00:17:46;;;;;;;28.07;12.13;;;5.90;88.70;;;;;;5087729;28;20191;-62
2023/03/17 00:20:25;;;;;;;24.63;11.97;;;6.00;88.80;;;;;;5079994;28;20198;-62
2023/03/17 00:22:53;;;;;;;31.67;11.83;;;6.00;88.80;;;;;;5089338;28;20667;-62
2023/03/17 00:25:26;;;;;;;27.70;12.17;;;6.00;88.90;;;;;;5089855;28;20201;-62
2023/03/17 00:27:53;;;;;;;29.80;12.03;;;6.00;88.80;;;;;;5086949;28;20210;-62
2023/03/17 00:30:21;;;;;;;30.37;11.90;;;6.00;88.80;;;;;;5086863;28;20199;-63
2023/03/17 00:32:51;;;;;;;22.13;9.90;;;6.10;89.00;;;;;;5062295;28;20232;-62
2023/03/17 00:35:23;;;;;;;26.67;11.63;;;6.10;88.90;;;;;;5086849;28;20187;-60
2023/03/17 00:37:52;;;;;;;24.63;10.17;;;6.10;88.90;;;;;;5088843;28;20257;-61
2023/03/17 00:40:24;;;;;;;27.60;12.23;;;6.00;88.70;;;;;;5085755;28;20203;-61
2023/03/17 00:42:53;;;;;;;25.13;10.80;;;6.00;88.70;;;;;;5089073;28;20209;-61
2023/03/17 00:45:22;;;;;;;25.23;11.63;;;6.00;88.80;;;;;;5086039;28;20207;-61
2023/03/17 00:47:51;;;;;;;26.97;11.53;;;6.00;88.80;;;;;;5077268;28;20256;-61
2023/03/17 00:50:21;;;;;;;25.73;11.47;;;6.00;88.90;;;;;;5089757;28;20569;-61
2023/03/17 00:52:50;;;;;;;29.17;13.00;;;6.00;88.90;;;;;;5089383;28;20634;-61
2023/03/17 00:55:18;;;;;;;25.17;12.03;;;6.00;88.90;;;;;;5091457;28;20199;-62
2023/03/17 00:57:48;;;;;;;42.13;16.13;;;6.00;88.90;;;;;;5090968;28;20683;-61
2023/03/17 01:00:23;;;;;;;53.33;20.00;;;6.00;88.90;;;;;;5086150;28;20248;-61
2023/03/17 01:02:51;;;;;;;69.33;25.27;;;6.00;88.90;;;;;;5083897;28;20194;-61
2023/03/17 01:05:20;;;;;;;65.60;24.00;;;6.00;88.90;;;;;;5092865;28;20203;-61
2023/03/17 01:07:52;;;;;;;61.97;21.60;;;6.00;89.00;;;;;;5098668;28;20281;-62
2023/03/17 01:10:24;;;;;;;58.83;21.47;;;6.00;89.00;;;;;;5085799;28;20282;-62
2023/03/17 01:12:54;;;;;;;56.33;22.13;;;5.90;89.00;;;;;;5092208;28;20206;-62
2023/03/17 01:15:23;;;;;;;62.13;24.60;;;6.00;89.20;;;;;;5072241;28;20282;-62
2023/03/17 01:17:51;;;;;;;59.00;21.87;;;6.00;89.30;;;;;;5070538;28;20191;-62
2023/03/17 01:20:21;;;;;;;46.93;20.40;;;6.10;89.30;;;;;;5089409;28;20299;-61
2023/03/17 01:22:49;;;;;;;48.60;19.60;;;6.10;89.30;;;;;;5091926;28;20632;-61
2023/03/17 01:25:17;;;;;;;43.43;16.73;;;6.10;89.20;;;;;;5078310;28;20199;-61
2023/03/17 01:27:45;;;;;;;39.27;16.77;;;6.10;89.20;;;;;;5092146;28;20202;-61
2023/03/17 01:30:23;;;;;;;32.47;13.03;;;6.10;89.20;;;;;;5092336;28;20195;-61
2023/03/17 01:32:50;;;;;;;39.30;15.83;;;6.10;89.30;;;;;;5085883;28;20590;-61
2023/03/17 01:35:18;;;;;;;39.00;15.83;;;6.10;89.50;;;;;;5068569;28;20246;-61
2023/03/17 01:37:47;;;;;;;44.67;17.07;;;6.10;89.60;;;;;;5091637;28;20189;-62
2023/03/17 01:40:18;;;;;;;62.37;25.87;;;6.00;89.70;;;;;;5091990;28;20205;-61
2023/03/17 01:42:52;;;;;;;70.23;28.13;;;6.00;89.90;;;;;;5088105;28;20220;-61
2023/03/17 01:45:57;;;;;;;58.60;24.60;;;6.00;90.00;;;;;;5092023;28;20188;-61
2023/03/17 01:48:27;;;;;;;46.23;19.90;;;6.00;90.10;;;;;;5090095;28;20676;-61
2023/03/17 01:50:56;;;;;;;39.13;17.00;;;5.90;90.10;;;;;;5091968;28;20220;-61
2023/03/17 01:53:24;;;;;;;43.17;18.83;;;5.80;90.20;;;;;;5091404;28;20316;-61
2023/03/17 01:55:52;;;;;;;44.10;17.40;;;5.80;90.30;;;;;;5091901;28;20193;-61
2023/03/17 01:58:23;;;;;;;46.90;19.13;;;5.70;90.30;;;;;;5087308;28;20199;-61
2023/03/17 02:00:50;;;;;;;48.37;18.13;;;5.70;90.40;;;;;;5084451;28;20589;-61
2023/03/17 02:03:18;;;;;;;48.87;19.03;;;5.60;90.50;;;;;;5076846;28;20204;-61
2023/03/17 02:05:47;;;;;;;44.97;19.47;;;5.60;90.60;;;;;;5091037;28;20523;-61
2023/03/17 02:08:16;;;;;;;54.03;19.93;;;5.50;90.70;;;;;;5071119;28;20215;-61
2023/03/17 02:10:48;;;;;;;45.43;17.47;;;5.50;90.70;;;;;;5090671;28;20196;-62
2023/03/17 02:13:15;;;;;;;35.13;14.97;;;5.50;90.80;;;;;;5070092;28;20208;-61
2023/03/17 02:15:45;;;;;;;50.50;19.87;;;5.40;90.90;;;;;;5094279;28;20291;-61
2023/03/17 02:18:13;;;;;;;41.03;17.27;;;5.50;91.00;;;;;;5087620;28;20220;-61
2023/03/17 02:21:14;;;;;;;48.53;18.17;;;5.50;91.00;;;;;;5089349;28;20276;-61
2023/03/17 02:23:43;;;;;;;54.87;19.20;;;5.50;90.90;;;;;;5050847;28;20203;-62
2023/03/17 02:26:11;;;;;;;73.03;23.47;;;5.60;90.90;;;;;;5088344;28;20194;-61
2023/03/17 02:28:39;;;;;;;66.17;21.17;;;5.60;90.90;;;;;;5084476;28;20961;-62
2023/03/17 02:31:07;;;;;;;80.10;25.07;;;5.60;90.90;;;;;;5104415;28;20207;-61
2023/03/17 02:33:34;;;;;;;88.47;27.40;;;5.60;91.00;;;;;;5089818;28;20674;-62
2023/03/17 02:36:02;;;;;;;75.53;23.50;;;5.60;91.00;;;;;;5091017;28;20679;-61
2023/03/17 02:38:29;;;;;;;99.43;27.87;;;5.50;91.00;;;;;;5088440;28;20193;-61
2023/03/17 02:40:57;;;;;;;89.93;25.67;;;5.50;91.00;;;;;;5090307;28;20221;-61
2023/03/17 02:43:24;;;;;;;76.37;24.10;;;5.40;91.10;;;;;;5088059;28;20669;-61
2023/03/17 02:45:56;;;;;;;81.27;26.03;;;5.40;91.20;;;;;;5089424;28;20188;-62
2023/03/17 02:48:23;;;;;;;77.87;25.87;;;5.40;91.20;;;;;;5086432;28;20694;-62
2023/03/17 02:50:50;;;;;;;74.43;25.20;;;5.40;91.30;;;;;;5090802;28;20196;-62
2023/03/17 02:53:17;;;;;;;46.70;19.03;;;5.40;91.40;;;;;;5090425;28;20250;-62
2023/03/17 02:55:44;;;;;;;45.93;17.60;;;5.40;91.40;;;;;;5088237;28;20201;-62
2023/03/17 02:58:13;;;;;;;36.10;15.37;;;5.40;91.40;;;;;;5095040;28;20195;-62
2023/03/17 03:00:40;;;;;;;35.33;15.23;;;5.40;91.40;;;;;;5095410;28;20188;-62
2023/03/17 03:03:07;;;;;;;38.10;16.23;;;5.40;91.40;;;;;;5069691;28;20208;-62
2023/03/17 03:05:34;;;;;;;44.87;18.10;;;5.30;91.40;;;;;;5090553;28;20263;-62
2023/03/17 03:08:02;;;;;;;36.90;15.50;;;5.30;91.50;;;;;;5090362;28;20216;-62
2023/03/17 03:10:29;;;;;;;30.70;14.47;;;5.40;91.60;;;;;;5089459;28;20224;-62
2023/03/17 03:12:56;;;;;;;31.37;12.83;;;5.40;91.60;;;;;;5089550;28;20673;-62
2023/03/17 03:15:25;;;;;;;36.13;15.27;;;5.30;91.60;;;;;;5089088;28;20196;-62
2023/03/17 03:17:52;;;;;;;45.17;18.53;;;6.30;92.10;;;;;;5088538;28;20207;-62
2023/03/17 03:20:20;;;;;;;37.00;16.57;;;5.30;91.70;;;;;;5089741;28;20295;-62
2023/03/17 03:22:47;;;;;;;46.40;19.43;;;5.40;91.80;;;;;;5089919;28;20193;-62
2023/03/17 03:25:15;;;;;;;44.50;18.63;;;5.30;91.90;;;;;;5090339;28;20241;-62
2023/03/17 03:27:42;;;;;;;36.20;16.43;;;5.30;91.90;;;;;;5086339;28;20235;-63
2023/03/17 03:30:10;;;;;;;30.07;14.50;;;5.30;92.00;;;;;;5089702;28;20224;-62
2023/03/17 03:32:39;;;;;;;36.23;15.70;;;5.30;92.10;;;;;;5088309;28;20691;-62
2023/03/17 03:35:07;;;;;;;33.93;16.37;;;5.40;92.20;;;;;;5089677;28;20241;-62
2023/03/17 03:37:34;;;;;;;34.57;14.80;;;5.40;92.20;;;;;;5089971;28;20221;-62
2023/03/17 03:40:01;;;;;;;36.70;17.00;;;5.40;92.20;;;;;;5089649;28;20201;-62
2023/03/17 03:42:29;;;;;;;37.67;15.83;;;5.40;92.20;;;;;;5071631;28;20671;-62
2023/03/17 03:44:56;;;;;;;27.80;13.70;;;5.30;92.20;;;;;;5087710;28;20564;-62
2023/03/17 03:47:23;;;;;;;29.23;14.57;;;5.40;92.30;;;;;;5088036;28;20204;-62
2023/03/17 03:49:52;;;;;;;29.77;14.10;;;5.40;92.30;;;;;;5089475;28;20657;-62
2023/03/17 03:52:19;;;;;;;29.50;12.40;;;5.40;92.30;;;;;;5071555;28;20255;-62
2023/03/17 03:54:47;;;;;;;26.17;12.83;;;5.40;92.30;;;;;;5089490;28;20594;-62
2023/03/17 03:57:14;;;;;;;25.37;12.67;;;5.30;92.40;;;;;;5069679;28;20193;-62
2023/03/17 03:59:41;;;;;;;25.63;11.93;;;5.30;92.50;;;;;;5080899;28;20224;-62
2023/03/17 04:02:08;;;;;;;31.40;14.07;;;5.30;92.50;;;;;;5086693;28;20526;-62
2023/03/17 04:04:35;;;;;;;30.33;14.20;;;5.30;92.50;;;;;;5070315;28;20212;-62
2023/03/17 04:07:04;;;;;;;35.43;17.10;;;5.50;92.60;;;;;;5080008;28;20189;-62
2023/03/17 04:09:31;;;;;;;39.93;17.20;;;5.30;92.50;;;;;;5081894;28;20226;-62
2023/03/17 04:11:58;;;;;;;39.17;16.93;;;5.30;92.60;;;;;;5077951;28;20192;-61
2023/03/17 04:14:25;;;;;;;29.67;14.90;;;5.30;92.70;;;;;;5079443;28;20197;-61
2023/03/17 04:16:52;;;;;;;34.07;15.60;;;5.30;92.70;;;;;;5084543;28;20756;-61
2023/03/17 04:19:20;;;;;;;40.73;19.30;;;5.30;92.80;;;;;;5085661;28;20215;-61
2023/03/17 04:21:47;;;;;;;42.60;18.77;;;5.20;92.80;;;;;;5082145;28;20712;-62
2023/03/17 04:24:15;;;;;;;35.23;15.33;;;5.20;92.80;;;;;;5085455;28;20550;-62
2023/03/17 04:26:43;;;;;;;37.67;17.13;;;5.10;92.90;;;;;;5084173;28;20193;-62
2023/03/17 04:29:14;;;;;;;43.87;18.07;;;5.10;93.00;;;;;;5088156;28;20230;-62
2023/03/17 04:31:41;;;;;;;32.07;15.80;;;5.10;93.20;;;;;;5088307;28;20203;-62
2023/03/17 04:34:14;;;;;;;28.90;13.10;;;5.10;93.20;;;;;;5093598;28;20488;-62
2023/03/17 04:36:41;;;;;;;28.70;13.63;;;5.10;93.30;;;;;;5093526;28;20569;-62
2023/03/17 04:39:09;;;;;;;26.73;12.30;;;5.10;93.30;;;;;;5093396;28;20267;-62
2023/03/17 04:41:37;;;;;;;34.10;14.13;;;5.10;93.30;;;;;;5093281;28;20242;-62
2023/03/17 04:44:05;;;;;;;33.30;14.27;;;5.10;93.30;;;;;;5092410;28;20189;-62
2023/03/17 04:46:34;;;;;;;46.70;17.60;;;5.10;93.40;;;;;;5091409;28;20640;-61
2023/03/17 04:49:01;;;;;;;38.03;14.97;;;5.10;93.50;;;;;;5085712;28;20252;-61
2023/03/17 04:51:28;;;;;;;44.20;18.30;;;5.10;93.60;;;;;;5086408;28;20199;-61
2023/03/17 04:53:55;;;;;;;41.57;17.33;;;5.10;93.60;;;;;;5052598;28;20617;-61
2023/03/17 04:56:22;;;;;;;45.93;19.30;;;5.20;93.70;;;;;;5042649;28;20201;-62
2023/03/17 04:58:51;;;;;;;45.03;18.87;;;5.20;93.80;;;;;;5051246;28;20264;-61
2023/03/17 05:01:18;;;;;;;41.70;17.70;;;5.20;93.80;;;;;;5050981;28;20598;-61
2023/03/17 05:03:45;;;;;;;43.33;17.60;;;5.20;93.90;;;;;;5052580;28;20567;-62
2023/03/17 05:06:12;;;;;;;36.70;16.33;;;5.20;93.90;;;;;;5051963;28;20277;-62
2023/03/17 05:08:39;;;;;;;34.43;15.83;;;5.20;94.00;;;;;;5053479;28;20229;-61
2023/03/17 05:11:06;;;;;;;46.83;19.00;;;5.10;93.90;;;;;;5052128;28;20586;-62
2023/03/17 05:13:33;;;;;;;45.33;19.37;;;5.10;94.20;;;;;;5051753;28;20197;-61
2023/03/17 05:16:02;;;;;;;45.97;19.40;;;5.10;94.30;;;;;;5052206;28;20225;-62
2023/03/17 05:18:30;;;;;;;50.73;20.07;;;5.10;94.50;;;;;;5051955;28;20197;-62
2023/03/17 05:20:57;;;;;;;45.00;19.13;;;5.00;94.60;;;;;;5051772;28;20233;-62
2023/03/17 05:23:24;;;;;;;42.60;19.77;;;5.00;94.80;;;;;;5052618;28;20217;-62
2023/03/17 05:25:52;;;;;;;41.73;19.00;;;5.00;95.00;;;;;;5052667;28;20589;-62
2023/03/17 05:28:19;;;;;;;37.03;16.87;;;4.90;95.10;;;;;;5050883;28;20214;-62
2023/03/17 05:30:47;;;;;;;42.17;18.77;;;4.90;95.20;;;;;;5049190;28;20209;-61
2023/03/17 05:33:16;;;;;;;37.57;17.10;;;5.00;95.30;;;;;;5044703;28;20197;-61
2023/03/17 05:35:44;;;;;;;33.90;15.53;;;4.90;95.30;;;;;;5050231;28;20255;-62
2023/03/17 05:38:12;;;;;;;38.60;18.50;;;5.00;95.40;;;;;;5048926;28;20240;-62
2023/03/17 05:40:40;;;;;;;41.57;18.97;;;4.90;95.40;;;;;;5045535;28;20243;-62
2023/03/17 05:43:07;;;;;;;49.47;21.50;;;5.00;95.60;;;;;;5051531;28;20371;-62
2023/03/17 05:45:34;;;;;;;53.67;21.73;;;5.00;95.60;;;;;;5050772;28;20247;-62
2023/03/17 05:48:01;;;;;;;54.07;22.57;;;5.00;96.00;;;;;;5046346;28;20205;-62
2023/03/17 05:50:30;;;;;;;40.70;19.23;;;5.00;95.80;;;;;;5050540;28;20620;-62
2023/03/17 05:52:57;;;;;;;41.23;17.87;;;5.00;95.80;;;;;;5051780;28;20551;-62
2023/03/17 05:55:24;;;;;;;34.63;15.27;;;5.00;95.80;;;;;;5085244;28;20606;-62
2023/03/17 05:57:51;;;;;;;35.67;14.70;;;5.00;95.80;;;;;;5089064;28;20215;-62
2023/03/17 06:00:20;;;;;;;32.27;13.67;;;5.00;95.90;;;;;;5090907;28;20663;-62
2023/03/17 06:02:47;;;;;;;28.20;12.50;;;5.10;96.00;;;;;;5076532;28;20199;-62
2023/03/17 06:05:14;;;;;;;28.10;13.03;;;5.00;95.90;;;;;;5089526;28;20196;-63
2023/03/17 06:07:42;;;;;;;29.20;14.00;;;5.10;96.00;;;;;;5071559;28;20212;-63
2023/03/17 06:10:12;;;;;;;32.80;14.03;;;5.00;96.10;;;;;;5080851;28;20299;-62
2023/03/17 06:12:40;;;;;;;33.50;13.17;;;5.00;96.30;;;;;;5068549;28;20211;-62
2023/03/17 06:15:08;;;;;;;35.87;15.23;;;5.10;96.30;;;;;;5088213;28;20194;-62
2023/03/17 06:17:36;;;;;;;34.73;14.07;;;5.10;96.50;;;;;;5089754;28;20299;-62
2023/03/17 06:20:04;;;;;;;28.93;12.23;;;5.00;96.50;;;;;;5078311;28;20197;-61
2023/03/17 06:22:31;;;;;;;31.57;14.70;;;5.00;96.60;;;;;;5088546;28;20204;-63
2023/03/17 06:25:00;;;;;;;27.23;12.70;;;5.00;96.80;;;;;;5073272;28;20215;-61
2023/03/17 06:27:27;;;;;;;28.93;12.57;;;5.10;96.90;;;;;;5086784;28;20224;-62
2023/03/17 06:29:54;;;;;;;22.47;11.47;;;5.10;96.90;;;;;;5090448;28;20307;-61
2023/03/17 06:32:21;;;;;;;18.43;10.10;;;5.10;97.10;;;;;;5089517;28;20256;-62
2023/03/17 06:34:48;;;;;;;19.80;10.17;;;5.10;97.10;;;;;;5091107;28;20192;-62
2023/03/17 06:37:16;;;;;;;17.90;9.80;;;5.20;97.10;;;;;;5090174;28;20193;-62
2023/03/17 06:39:44;;;;;;;24.30;10.47;;;5.20;97.10;;;;;;5090832;28;20219;-63
2023/03/17 06:42:12;;;;;;;19.67;8.90;;;5.20;97.20;;;;;;5088380;28;20201;-62
2023/03/17 06:44:40;;;;;;;24.87;12.07;;;5.20;97.30;;;;;;5089476;28;20188;-62
2023/03/17 06:47:07;;;;;;;22.57;10.90;;;5.20;97.40;;;;;;5091876;28;20197;-61
2023/03/17 06:49:34;;;;;;;22.50;11.77;;;5.30;97.60;;;;;;5092903;28;20221;-62
2023/03/17 06:52:01;;;;;;;27.67;11.93;;;5.20;97.60;;;;;;5080703;28;20270;-62
2023/03/17 06:54:28;;;;;;;30.57;13.17;;;5.20;97.80;;;;;;5086689;28;20228;-62
2023/03/17 06:56:56;;;;;;;22.70;11.13;;;5.20;98.00;;;;;;5082596;28;20271;-62
2023/03/17 06:59:24;;;;;;;28.07;13.20;;;5.20;98.10;;;;;;5084816;28;20292;-62
2023/03/17 07:01:52;;;;;;;25.23;11.67;;;5.20;98.30;;;;;;5086057;28;20265;-62
2023/03/17 07:04:19;;;;;;;21.63;9.93;;;5.10;98.40;;;;;;5075686;28;20304;-62
2023/03/17 07:06:46;;;;;;;20.93;10.53;;;5.20;98.50;;;;;;5079810;28;20247;-62
2023/03/17 07:09:14;;;;;;;25.47;11.03;;;5.20;98.60;;;;;;5087876;28;20704;-61
2023/03/17 07:11:41;;;;;;;26.73;12.47;;;5.20;98.70;;;;;;5088745;28;20200;-62
2023/03/17 07:14:08;;;;;;;23.57;11.67;;;5.20;98.90;;;;;;5087680;28;20196;-62
2023/03/17 07:16:37;;;;;;;22.33;11.17;;;5.30;99.00;;;;;;5087732;28;20230;-62
2023/03/17 07:19:04;;;;;;;24.03;11.67;;;5.30;99.20;;;;;;5087786;28;20181;-63
2023/03/17 07:21:31;;;;;;;23.73;11.53;;;5.30;99.30;;;;;;5081243;28;20207;-62
2023/03/17 07:23:58;;;;;;;23.10;11.83;;;5.30;99.40;;;;;;5087612;28;20208;-62
2023/03/17 07:26:26;;;;;;;26.07;11.07;;;5.30;99.60;;;;;;5088881;28;20192;-62
2023/03/17 07:28:53;;;;;;;22.23;10.77;;;5.20;99.80;;;;;;5062289;28;20220;-62
2023/03/17 07:31:23;;;;;;;22.67;11.37;;;5.30;99.90;;;;;;5087274;28;20555;-62
2023/03/17 07:33:51;;;;;;;27.87;11.37;;;5.20;99.90;;;;;;5088482;28;20188;-62
2023/03/17 07:36:18;;;;;;;20.50;10.17;;;5.20;99.90;;;;;;5088225;28;20307;-62
2023/03/17 07:38:46;;;;;;;17.97;10.23;;;5.20;99.90;;;;;;5084459;28;20193;-62
2023/03/17 07:41:13;;;;;;;20.37;10.43;;;5.20;99.90;;;;;;5066523;28;20261;-62
2023/03/17 07:43:40;;;;;;;27.93;11.30;;;5.30;99.90;;;;;;5086801;28;20199;-62
2023/03/17 07:46:08;;;;;;;21.70;10.43;;;5.30;99.90;;;;;;5077866;28;20587;-62
2023/03/17 07:48:39;;;;;;;25.30;10.70;;;5.30;99.90;;;;;;5087404;28;20567;-61
2023/03/17 07:51:11;;;;;;;20.47;10.30;;;5.30;99.90;;;;;;5078080;28;20252;-62
2023/03/17 07:53:38;;;;;;;23.40;10.73;;;5.30;99.90;;;;;;5079229;28;20637;-62
2023/03/17 07:56:06;;;;;;;25.90;11.93;;;5.20;99.90;;;;;;5088943;28;20327;-62
2023/03/17 07:58:33;;;;;;;28.17;11.87;;;5.20;99.90;;;;;;5066775;28;20522;-62
2023/03/17 08:01:00;;;;;;;23.57;12.23;;;5.10;99.90;;;;;;5089983;28;20193;-62
2023/03/17 08:03:29;;;;;;;22.33;12.10;;;5.10;99.90;;;;;;5091074;28;20677;-62
2023/03/17 08:05:59;;;;;;;30.47;13.17;;;5.10;99.90;;;;;;5077804;28;20683;-62
2023/03/17 08:12:07;;;;;;;21.33;11.77;;;5.10;99.90;;;;;;5086184;28;20180;-62
2023/03/17 08:14:34;;;;;;;30.17;12.90;;;5.10;99.90;;;;;;5091180;28;20189;-62
2023/03/17 08:17:01;;;;;;;23.90;11.53;;;5.20;99.90;;;;;;5091398;28;20207;-62
2023/03/17 08:19:28;;;;;;;30.10;13.47;;;5.20;99.90;;;;;;5091377;28;20195;-61
2023/03/17 08:21:55;;;;;;;25.63;13.23;;;5.40;99.90;;;;;;5091762;28;20670;-61
2023/03/17 08:24:23;;;;;;;24.63;12.87;;;5.40;99.90;;;;;;5092078;28;20192;-61
2023/03/17 08:26:50;;;;;;;25.77;13.40;;;5.50;99.90;;;;;;5091990;28;20224;-62
2023/03/17 08:29:19;;;;;;;22.70;12.90;;;5.50;99.90;;;;;;5091932;28;20594;-61
2023/03/17 08:31:46;;;;;;;33.40;13.77;;;5.50;99.90;;;;;;5098729;28;20310;-62
2023/03/17 08:34:15;;;;;;;22.83;11.83;;;5.60;99.90;;;;;;5090322;28;20227;-62
2023/03/17 08:36:42;;;;;;;23.67;12.33;;;5.70;99.90;;;;;;5089498;28;20196;-61
2023/03/17 08:39:09;;;;;;;24.60;12.07;;;5.90;99.90;;;;;;5090716;28;20574;-61
2023/03/17 08:41:37;;;;;;;33.77;13.63;;;6.00;99.90;;;;;;5090716;28;20196;-61
2023/03/17 08:44:04;;;;;;;19.93;11.60;;;6.00;99.90;;;;;;5083131;28;20566;-61
2023/03/17 08:46:33;;;;;;;26.43;11.73;;;6.10;99.90;;;;;;5090021;28;20204;-61
2023/03/17 08:49:02;;;;;;;23.37;12.43;;;6.20;99.90;;;;;;5063772;28;20204;-63
2023/03/17 08:51:31;;;;;;;20.97;11.50;;;6.30;99.90;;;;;;5090266;28;20616;-62
2023/03/17 08:53:59;;;;;;;26.60;12.90;;;6.30;99.90;;;;;;5082239;28;20302;-62
2023/03/17 08:56:27;;;;;;;21.70;12.03;;;6.40;99.90;;;;;;5091308;28;20207;-62
2023/03/17 08:58:55;;;;;;;27.17;12.47;;;6.40;99.90;;;;;;5077713;28;20193;-61
2023/03/17 09:01:22;;;;;;;23.90;12.25;;;6.50;99.90;;;;;;5066822;28;20561;-62
2023/03/17 09:03:53;;;;;;;22.17;11.60;;;6.50;99.90;;;;;;5081569;28;20624;-62
2023/03/17 09:06:21;;;;;;;25.53;12.27;;;6.60;99.90;;;;;;5089865;28;20592;-62
2023/03/17 09:08:53;;;;;;;20.83;10.27;;;6.70;99.90;;;;;;5091359;28;20199;-63
2023/03/17 09:11:22;;;;;;;18.20;11.87;;;6.80;99.90;;;;;;5090590;28;20245;-62
2023/03/17 09:13:50;;;;;;;21.83;11.03;;;6.80;99.90;;;;;;5090447;28;20255;-62
2023/03/17 09:16:18;;;;;;;16.97;10.63;;;6.90;99.90;;;;;;5089972;28;20202;-62
2023/03/17 09:18:46;;;;;;;19.20;10.40;;;7.00;99.90;;;;;;5090755;28;20204;-61
2023/03/17 09:21:15;;;;;;;18.93;10.70;;;7.10;99.90;;;;;;5090158;28;20185;-61
2023/03/17 09:23:42;;;;;;;19.23;10.40;;;7.30;99.90;;;;;;5090679;28;20204;-61
2023/03/17 09:26:10;;;;;;;19.23;9.63;;;7.40;99.90;;;;;;5081626;28;20601;-61
2023/03/17 09:28:37;;;;;;;18.30;10.00;;;7.40;99.90;;;;;;5086062;28;20202;-61
2023/03/17 09:31:10;;;;;;;18.03;10.10;;;7.30;99.90;;;;;;5085765;28;20349;-61
2023/03/17 09:33:37;;;;;;;17.07;9.87;;;7.30;99.90;;;;;;5086689;28;20199;-61
2023/03/17 09:36:05;;;;;;;18.13;9.90;;;7.20;99.90;;;;;;5071573;28;20196;-61
2023/03/17 09:38:34;;;;;;;18.17;9.53;;;7.20;99.90;;;;;;5088095;28;20518;-61
2023/03/17 09:41:18;;;;;;;15.47;10.30;;;7.20;99.90;;;;;;5075514;28;20208;-62
2023/03/17 09:43:53;;;;;;;18.80;10.20;;;7.20;99.90;;;;;;5080241;28;20705;-62
2023/03/17 09:46:35;;;;;;;20.23;10.67;;;7.20;99.90;;;;;;5085420;28;20195;-62
2023/03/17 09:49:08;;;;;;;22.90;9.80;;;7.20;99.80;;;;;;5094577;27;20223;-62
2023/03/17 09:51:35;;;;;;;20.93;11.23;;;7.20;99.70;;;;;;5089895;28;20551;-62
2023/03/17 09:54:07;;;;;;;36.73;13.10;;;7.20;99.50;;;;;;5090318;28;20226;-62
2023/03/17 09:56:36;;;;;;;22.83;10.10;;;7.20;99.50;;;;;;5089656;28;20194;-61
2023/03/17 09:59:06;;;;;;;16.77;9.47;;;7.40;99.30;;;;;;5088595;28;20196;-61
2023/03/17 10:01:33;;;;;;;13.73;8.83;;;7.40;98.80;;;;;;5074779;28;20279;-62
2023/03/17 10:04:02;;;;;;;17.30;9.37;;;7.40;98.40;;;;;;5089902;28;20284;-61
2023/03/17 10:06:37;;;;;;;18.40;9.50;;;7.50;98.20;;;;;;5079340;28;20195;-62
2023/03/17 10:09:17;;;;;;;15.80;9.10;;;7.60;97.90;;;;;;5090388;28;20387;-61
2023/03/17 10:11:47;;;;;;;15.53;9.13;;;7.80;97.50;;;;;;5087623;28;20212;-62
2023/03/17 10:14:38;;;;;;;17.10;9.23;;;8.20;96.80;;;;;;5089062;28;20211;-62
2023/03/17 10:17:15;;;;;;;20.83;9.50;;;8.60;95.70;;;;;;5077096;28;20200;-62
2023/03/17 10:19:47;;;;;;;16.88;7.63;;;9.10;94.90;;;;;;5081038;28;20962;-62
2023/03/17 10:22:20;;;;;;;13.98;8.20;;;9.50;94.90;;;;;;5088574;28;20421;-62
2023/03/17 10:24:52;;;;;;;14.30;7.80;;;10.00;93.60;;;;;;5088099;28;20436;-62
2023/03/17 10:27:20;;;;;;;14.33;7.70;;;10.40;92.60;;;;;;5089674;28;20222;-61
2023/03/17 10:29:47;;;;;;;12.00;7.63;;;10.60;91.00;;;;;;5062988;28;20468;-63
2023/03/17 10:32:15;;;;;;;14.20;7.90;;;10.50;90.60;;;;;;5070766;28;20303;-62
2023/03/17 10:34:43;;;;;;;13.50;8.00;;;10.50;89.60;;;;;;5067241;28;20190;-62
2023/03/17 10:37:14;;;;;;;13.87;7.50;;;10.20;88.10;;;;;;5088419;28;20191;-62
2023/03/17 10:39:45;;;;;;;15.17;8.10;;;10.00;88.10;;;;;;5088158;28;20211;-62
2023/03/17 10:42:22;;;;;;;20.57;8.60;;;9.90;89.90;;;;;;5087237;28;20564;-61
2023/03/17 10:44:52;;;;;;;16.73;8.00;;;9.80;90.10;;;;;;5086657;28;20190;-62
2023/03/17 10:47:23;;;;;;;15.37;8.20;;;9.70;90.40;;;;;;5069950;28;20200;-62
2023/03/17 10:49:51;;;;;;;15.43;8.23;;;9.60;90.00;;;;;;5087930;28;20215;-62
2023/03/17 10:52:22;;;;;;;17.13;7.17;;;9.30;90.00;;;;;;5070420;28;20627;-62
2023/03/17 10:54:51;;;;;;;15.00;6.50;;;9.10;90.30;;;;;;5088854;28;20232;-62
2023/03/17 10:57:20;;;;;;;10.73;6.60;;;8.90;90.50;;;;;;5088023;28;20283;-62
2023/03/17 10:59:53;;;;;;;13.20;6.60;;;8.90;90.80;;;;;;5087798;28;20600;-62
2023/03/17 11:02:29;;;;;;;12.17;6.50;;;8.90;90.90;;;;;;5079319;28;20215;-62
2023/03/17 11:05:00;;;;;;;14.10;7.60;;;8.90;91.00;;;;;;5087770;28;20196;-62
2023/03/17 11:07:34;;;;;;;14.83;6.87;;;9.00;91.00;;;;;;5088156;28;20549;-61
2023/03/17 11:10:03;;;;;;;10.83;6.17;;;9.00;90.30;;;;;;5083175;28;20527;-61
2023/03/17 11:12:38;;;;;;;12.50;6.83;;;9.10;90.40;;;;;;5088934;28;20272;-62
2023/03/17 11:15:11;;;;;;;16.07;7.60;;;9.20;90.20;;;;;;5085080;28;20274;-61
2023/03/17 11:17:44;;;;;;;13.10;6.60;;;9.30;89.50;;;;;;5088123;28;20231;-62
2023/03/17 11:20:27;;;;;;;14.70;6.30;;;9.30;88.50;;;;;;5088750;28;20251;-61
2023/03/17 11:23:01;;;;;;;13.73;6.93;;;9.30;88.40;;;;;;5088378;28;20840;-62
2023/03/17 11:25:29;;;;;;;13.20;6.73;;;9.30;88.40;;;;;;5083730;28;20526;-61
2023/03/17 11:28:15;;;;;;;13.77;7.27;;;9.30;88.70;;;;;;5068015;28;20208;-62
2023/03/17 11:30:47;;;;;;;14.30;6.77;;;9.30;88.30;;;;;;5087986;28;20208;-62
2023/03/17 11:33:28;;;;;;;12.30;6.60;;;9.30;87.50;;;;;;5087509;28;20184;-61
2023/03/17 11:36:00;;;;;;;14.90;7.10;;;9.10;87.50;;;;;;5077318;28;20262;-61
2023/03/17 11:38:30;;;;;;;15.07;7.50;;;9.10;87.70;;;;;;5085627;28;20197;-61
2023/03/17 11:41:19;;;;;;;14.03;6.47;;;9.20;86.70;;;;;;5089213;28;20219;-62
2023/03/17 11:44:18;;;;;;;17.17;6.60;;;9.40;85.80;;;;;;5080373;28;20283;-62
2023/03/17 11:46:50;;;;;;;13.83;6.37;;;9.70;85.10;;;;;;5081618;28;20279;-60
2023/03/17 11:49:21;;;;;;;13.50;7.10;;;10.20;82.60;;;;;;5085646;28;20655;-61
2023/03/17 11:51:58;;;;;;;14.50;6.63;;;10.60;80.50;;;;;;5088008;28;20205;-61
2023/03/17 11:54:37;;;;;;;13.97;7.07;;;11.00;79.60;;;;;;5083870;28;20585;-61
2023/03/17 11:57:11;;;;;;;14.60;6.97;;;11.40;78.40;;;;;;5082144;28;20206;-62
2023/03/17 11:59:45;;;;;;;14.57;6.90;;;11.50;76.30;;;;;;5084592;28;20264;-62
2023/03/17 12:02:20;;;;;;;17.63;8.10;;;11.70;75.70;;;;;;5099433;28;20679;-61
2023/03/17 12:04:53;;;;;;;14.20;6.63;;;12.00;73.60;;;;;;5061738;28;20689;-61
2023/03/17 12:07:23;;;;;;;13.83;6.87;;;12.20;74.20;;;;;;5084857;28;20203;-62
2023/03/17 12:09:59;;;;;;;12.70;6.97;;;12.50;72.70;;;;;;5071392;28;20263;-61
2023/03/17 12:12:32;;;;;;;12.47;6.40;;;12.50;71.30;;;;;;5069656;28;20223;-60
2023/03/17 12:15:04;;;;;;;11.83;6.10;;;12.50;69.70;;;;;;5079103;28;20192;-61
2023/03/17 12:17:35;;;;;;;17.50;7.23;;;12.50;69.00;;;;;;5087888;28;20643;-61
2023/03/17 12:20:17;;;;;;;15.77;7.07;;;12.50;68.70;;;;;;5086801;28;20202;-62
2023/03/17 12:22:48;;;;;;;13.80;6.93;;;12.60;68.10;;;;;;5087983;28;20189;-62
2023/03/17 12:25:24;;;;;;;14.00;6.87;;;12.80;67.80;;;;;;5087915;28;20261;-62
2023/03/17 12:27:59;;;;;;;15.63;7.17;;;13.20;67.80;;;;;;5070889;28;20596;-62
2023/03/17 12:30:33;;;;;;;13.70;6.83;;;13.50;66.40;;;;;;5084574;28;20707;-61
2023/03/17 12:33:11;;;;;;;11.13;6.27;;;13.50;65.30;;;;;;5082508;28;20203;-61
2023/03/17 12:35:39;;;;;;;12.73;6.43;;;13.40;66.80;;;;;;5087071;28;20241;-61
2023/03/17 12:38:12;;;;;;;16.20;7.30;;;13.10;65.70;;;;;;5087332;28;20280;-62
2023/03/17 12:40:55;;;;;;;15.63;7.70;;;12.70;66.10;;;;;;5066194;28;20542;-62
2023/03/17 12:43:38;;;;;;;13.73;6.80;;;12.40;66.10;;;;;;5084653;28;20268;-62
2023/03/17 12:46:27;;;;;;;14.37;7.43;;;12.30;65.30;;;;;;5089662;28;20387;-61
2023/03/17 12:49:17;;;;;;;14.43;7.17;;;12.20;65.70;;;;;;5095516;28;20212;-62
2023/03/17 12:52:00;;;;;;;16.33;7.13;;;12.20;65.70;;;;;;5080167;28;20218;-61
2023/03/17 12:54:29;;;;;;;15.63;6.80;;;12.10;65.10;;;;;;5072984;28;20241;-61